Details From KSEA - Seattle Tacoma Intl
To KCLM - William R Fairchild Intl
Flight Number -
Tags Generated
Created
Modified
Stats Distance 62 nm / 115 km
Max Altitude 0 ft / 0 m
Waypoints 2
Social Downloads 2
Likes 0
Share VATSIM

Download

Looking for another format? Having issues loading an existing format? Contact us
Advertisement - Login to hide

Notes

Generated

Route

KSEA KCLM

ID Type Via Altitude Latitude Longitude Leg Dist Tot Dist Heading (true) Name
O KSEA APT - 0 ft / 0 m 47.46383˚ -122.31786˚ - 0 nm - -
O KCLM APT - 0 ft / 0 m 48.12657˚ -123.50476˚ 62 nm 62 nm 310° / 309° -

Altitude Profile

Advertisement - Login to hide

KSEA

Details ICAO KSEA (SEA)
Name Seattle Tacoma Intl
Region United States
Timezone America/Los_Angeles (UTC-8.0)
Stats Elevation 433 ft / 132 m (AMSL)
Location 47.450188° -122.312320°
Runways 3
Magnetic Variation 15.685° E

METAR

KSEA 121953Z 20003KT 10SM BKN060 BKN150 06/M01 A3047 RMK AO2 SLP327 T00611006

Decode

TAF

TAF KSEA 121720Z 1218/1324 00000KT P6SM FEW050 BKN070 OVC200 FM122200 33004KT P6SM SCT080 SCT150 FM130300 03004KT P6SM SCT250 FM131300 03006KT 1/2SM FG BKN001 FM132100 03006KT 5SM BR SCT002

Decode

Departure Runways

ID Width Length Bearing (true) Bearing (mag) Surface Threshold Offset Overrun Length
16C 151 ft / 46 m 9,429 ft / 2,874 m 180.34° 164.65° Concrete 0 ft / 0 m 223 ft / 68 m
16L 151 ft / 46 m 11,904 ft / 3,628 m 180.34° 164.65° Concrete 0 ft / 0 m 151 ft / 46 m
16R 151 ft / 46 m 8,503 ft / 2,592 m 180.34° 164.65° Concrete 0 ft / 0 m 164 ft / 50 m
34C 151 ft / 46 m 9,429 ft / 2,874 m 0.34° 344.65° Concrete 0 ft / 0 m 394 ft / 120 m
34L 151 ft / 46 m 8,503 ft / 2,592 m 0.34° 344.65° Concrete 0 ft / 0 m 394 ft / 120 m
34R 151 ft / 46 m 11,904 ft / 3,628 m 0.34° 344.65° Concrete 0 ft / 0 m 400 ft / 122 m

KCLM

Details ICAO KCLM (CLM)
Name WILLIAM R FAIRCHILD INTL
Region United States
Timezone America/Los_Angeles (UTC-8.0)
Stats Elevation 291 ft / 89 m (AMSL)
Location 48.120829° -123.500070°
Runways 2
Magnetic Variation 16.054° E

METAR

KCLM 121953Z AUTO 07005KT 10SM CLR 08/06 A3047 RMK AO2 SLP321 T00830056

Decode

TAF

TAF KCLM 121720Z 1218/1318 19003KT P6SM SCT060 BKN200 FM122000 VRB04KT P6SM SCT080 SCT200

Decode

Destination Runways

ID Width Length Bearing (true) Bearing (mag) Surface Threshold Offset Overrun Length
08 151 ft / 46 m 6,353 ft / 1,936 m 104.61° 88.56° Asphalt 0 ft / 0 m 0 ft / 0 m
13 49 ft / 15 m 3,244 ft / 989 m 147.64° 131.59° Asphalt 0 ft / 0 m 0 ft / 0 m
26 151 ft / 46 m 6,353 ft / 1,936 m 284.63° 268.58° Asphalt 1,355 ft / 413 m 0 ft / 0 m
31 49 ft / 15 m 3,244 ft / 989 m 327.64° 311.59° Asphalt 0 ft / 0 m 0 ft / 0 m

Approach Navaids

Runway Type Ident Frequency Range Bearing (true) Bearing (mag) Slope Elevation
08 Localiser ICLM 108.90 MHz 18 nm / 33 km 104.64° 88.59° - 291 ft / 89 m (AMSL)
08 Glidescope ICLM 108.90 MHz 10 nm / 19 km 104.62° 88.57° 3.00° 281 ft / 86 m (AMSL)

Popular Alternatives